createdAt,value
2022-08-08T00:02:43.208Z,57.93
2022-08-08T00:07:55.923Z,59.28
2022-08-08T00:13:20.932Z,60.61
2022-08-08T00:19:03.245Z,60.61
2022-08-08T00:24:17.009Z,68.68
2022-08-08T00:29:45.723Z,63.26
2022-08-08T00:35:34.389Z,55.69
2022-08-08T00:41:08.077Z,56.42
2022-08-08T00:46:55.962Z,61.57
2022-08-08T00:52:28.777Z,59.02
2022-08-08T00:57:57.973Z,59.26
2022-08-08T01:04:02.513Z,59.39
2022-08-08T01:09:36.372Z,67.58
2022-08-08T01:15:03.336Z,60.71
2022-08-08T01:20:34.675Z,56.42
2022-08-08T01:26:11.482Z,59.91
2022-08-08T01:32:06.608Z,61.33
2022-08-08T01:37:58.259Z,67.77
2022-08-08T01:43:07.567Z,60.87
2022-08-08T01:48:30.451Z,56.64
2022-08-08T01:55:17.536Z,59.60
2022-08-08T01:59:17.666Z,62.01
2022-08-08T02:04:43.032Z,68.10
2022-08-08T02:10:30.058Z,62.70
2022-08-08T02:16:12.167Z,57.72
2022-08-08T02:21:48.888Z,60.62
2022-08-08T02:27:21.855Z,66.94
2022-08-08T02:32:26.350Z,61.23
2022-08-08T02:38:01.994Z,56.54
2022-08-08T02:44:38.902Z,57.77
2022-08-08T02:49:47.253Z,60.67
2022-08-08T02:55:22.959Z,67.25
2022-08-08T03:00:43.094Z,61.44
2022-08-08T03:05:56.450Z,57.63
2022-08-08T03:12:01.901Z,60.89
2022-08-08T03:17:52.102Z,60.12
2022-08-08T03:23:07.908Z,69.14
2022-08-08T03:28:21.948Z,62.88
2022-08-08T03:34:00.287Z,58.72
2022-08-08T03:38:55.960Z,58.57
2022-08-08T03:44:03.647Z,61.57
2022-08-08T03:49:56.157Z,67.10
2022-08-08T03:54:52.468Z,61.01
2022-08-08T04:00:02.521Z,56.58
2022-08-08T04:05:14.313Z,58.33
2022-08-08T04:10:22.808Z,62.38
2022-08-08T04:15:38.428Z,65.36
2022-08-08T04:20:41.996Z,61.64
2022-08-08T04:25:44.963Z,57.05
2022-08-08T04:30:49.566Z,58.03
2022-08-08T04:35:52.304Z,59.91
2022-08-08T04:40:55.604Z,65.80
2022-08-08T04:45:58.681Z,59.34
2022-08-08T04:51:01.551Z,53.68
2022-08-08T04:56:05.043Z,53.14
2022-08-08T05:01:11.110Z,53.15
2022-08-08T05:06:18.305Z,53.81
2022-08-08T05:11:28.346Z,56.48
2022-08-08T05:16:54.354Z,53.27
2022-08-08T05:21:59.985Z,54.50
2022-08-08T05:27:04.397Z,56.33
2022-08-08T05:32:09.499Z,56.58
2022-08-08T05:37:19.474Z,57.46
2022-08-08T05:42:43.472Z,58.01
2022-08-08T05:48:00.067Z,56.30
2022-08-08T05:53:54.291Z,55.06
2022-08-08T05:58:33.242Z,55.76
2022-08-08T06:03:40.447Z,53.86
2022-08-08T06:08:54.996Z,53.41
2022-08-08T06:14:07.625Z,52.08
2022-08-08T06:19:18.135Z,51.72
2022-08-08T06:24:23.216Z,47.96
2022-08-08T06:30:00.803Z,45.72
2022-08-08T06:36:03.879Z,45.43
2022-08-08T06:40:37.017Z,43.93
2022-08-08T06:45:40.756Z,42.61
2022-08-08T06:50:45.601Z,42.96
2022-08-08T06:56:01.887Z,42.01
2022-08-08T07:01:52.396Z,39.24
2022-08-08T07:06:34.183Z,37.23
2022-08-08T07:11:50.653Z,34.99
2022-08-08T07:17:09.172Z,29.95
2022-08-08T07:22:24.925Z,28.10
2022-08-08T07:27:47.313Z,27.61
2022-08-08T07:33:00.971Z,27.69
2022-08-08T07:38:18.177Z,28.25
2022-08-08T07:43:36.979Z,28.08
2022-08-08T07:48:40.832Z,27.17
2022-08-08T07:54:05.451Z,26.64
2022-08-08T07:59:14.963Z,26.89
2022-08-08T08:04:25.772Z,27.69
2022-08-08T08:09:39.261Z,28.11
2022-08-08T08:15:07.047Z,27.42
2022-08-08T08:20:11.739Z,26.22
2022-08-08T08:25:42.731Z,25.98
2022-08-08T08:30:49.710Z,25.13
2022-08-08T08:36:17.567Z,25.40
2022-08-08T08:41:20.140Z,26.17
2022-08-08T08:46:27.353Z,26.58
2022-08-08T08:51:37.855Z,28.46
2022-08-08T08:56:56.640Z,28.68
2022-08-08T09:02:02.754Z,29.94
2022-08-08T09:07:12.949Z,31.10
2022-08-08T09:12:27.405Z,32.07
2022-08-08T09:17:41.014Z,34.07
2022-08-08T09:22:58.500Z,34.96
2022-08-08T09:28:03.008Z,36.17
2022-08-08T09:33:54.873Z,36.20
2022-08-08T09:38:54.342Z,36.82
2022-08-08T09:44:15.353Z,36.95
2022-08-08T09:49:49.601Z,37.48
2022-08-08T09:54:51.911Z,37.92
2022-08-08T10:00:31.311Z,38.82
2022-08-08T10:05:31.311Z,39.47
2022-08-08T10:10:41.398Z,39.30
2022-08-08T10:15:59.195Z,38.75
2022-08-08T10:21:25.247Z,39.40
2022-08-08T10:26:51.882Z,40.19
2022-08-08T10:32:21.086Z,40.83
2022-08-08T10:37:30.961Z,40.30
2022-08-08T10:42:37.436Z,40.21
2022-08-08T10:47:53.600Z,39.26
2022-08-08T10:53:04.828Z,39.50
2022-08-08T10:58:11.672Z,39.41
2022-08-08T11:03:18.109Z,39.91
2022-08-08T11:08:41.144Z,39.52
2022-08-08T11:13:52.004Z,39.18
2022-08-08T11:19:04.949Z,39.32
2022-08-08T11:24:11.211Z,39.61
2022-08-08T11:29:17.450Z,39.67
2022-08-08T11:34:34.475Z,39.87
2022-08-08T11:39:57.264Z,40.07
2022-08-08T11:45:01.925Z,40.23
2022-08-08T11:50:10.022Z,40.47
2022-08-08T11:55:28.687Z,40.90
2022-08-08T12:00:32.165Z,40.29
2022-08-08T12:05:38.898Z,39.82
2022-08-08T12:10:53.068Z,38.95
2022-08-08T12:16:13.349Z,39.65
2022-08-08T12:22:00.528Z,39.58
2022-08-08T12:26:58.773Z,39.73
2022-08-08T12:32:17.186Z,39.20
2022-08-08T12:37:40.915Z,39.61
2022-08-08T12:42:47.995Z,39.45
2022-08-08T12:48:09.782Z,39.39
2022-08-08T12:53:29.942Z,40.14
2022-08-08T12:58:55.282Z,40.49
2022-08-08T13:03:58.933Z,40.46
2022-08-08T13:09:10.431Z,40.63
2022-08-08T13:14:15.543Z,41.42
2022-08-08T13:19:24.369Z,41.79
2022-08-08T13:24:39.441Z,41.58
2022-08-08T13:30:00.334Z,42.05
2022-08-08T13:35:11.771Z,41.92
2022-08-08T13:40:28.168Z,42.03
2022-08-08T13:45:31.722Z,42.34
2022-08-08T13:50:50.774Z,42.56
2022-08-08T13:56:00.665Z,42.40
2022-08-08T14:01:19.386Z,42.45
2022-08-08T14:06:33.105Z,42.68
2022-08-08T14:11:40.520Z,42.91
2022-08-08T14:16:50.716Z,42.86
2022-08-08T14:21:59.556Z,42.77
2022-08-08T14:27:07.371Z,42.71
2022-08-08T14:32:17.851Z,43.00
2022-08-08T14:37:42.707Z,43.00
2022-08-08T14:43:01.394Z,43.05
2022-08-08T14:48:05.507Z,43.19
2022-08-08T14:53:15.442Z,43.26
2022-08-08T14:58:19.991Z,43.59
2022-08-08T15:03:23.711Z,43.63
2022-08-08T15:08:35.108Z,44.10
2022-08-08T15:14:00.551Z,44.42
2022-08-08T15:19:04.711Z,44.79
2022-08-08T15:24:08.850Z,44.56
2022-08-08T15:29:18.455Z,44.85
2022-08-08T15:34:31.464Z,45.14
2022-08-08T15:39:39.661Z,45.55
2022-08-08T15:44:42.879Z,45.59
2022-08-08T15:49:47.479Z,45.80
2022-08-08T15:54:52.951Z,45.83
2022-08-08T16:00:25.780Z,45.72
2022-08-08T16:05:23.501Z,45.67
2022-08-08T16:13:09.903Z,45.68
2022-08-08T16:15:57.697Z,45.35
2022-08-08T16:21:20.617Z,45.47
2022-08-08T16:26:34.036Z,45.86
2022-08-08T16:31:48.508Z,46.76
2022-08-08T16:36:53.403Z,47.62
2022-08-08T16:42:01.197Z,48.31
2022-08-08T16:47:41.340Z,48.72
2022-08-08T16:55:02.596Z,48.88
2022-08-08T16:58:17.760Z,49.38
2022-08-08T17:03:24.812Z,50.02
2022-08-08T17:08:46.199Z,51.08
2022-08-08T17:14:01.699Z,52.02
2022-08-08T17:19:05.731Z,52.48
2022-08-08T17:24:26.911Z,53.34
2022-08-08T17:29:33.954Z,53.94
2022-08-08T17:34:54.663Z,55.01
2022-08-08T17:40:13.226Z,55.82
2022-08-08T17:45:22.288Z,56.93
2022-08-08T17:50:28.361Z,57.55
2022-08-08T17:56:07.012Z,58.51
2022-08-08T18:00:57.500Z,58.76
2022-08-08T18:06:03.088Z,58.48
2022-08-08T18:11:25.420Z,57.50
2022-08-08T18:16:33.064Z,57.28
2022-08-08T18:22:01.285Z,57.39
2022-08-08T18:27:06.231Z,57.24
2022-08-08T18:32:20.646Z,57.05
2022-08-08T18:37:33.973Z,57.42
2022-08-08T18:42:38.532Z,57.08
2022-08-08T18:47:52.517Z,57.35
2022-08-08T18:52:57.857Z,57.77
2022-08-08T18:58:01.989Z,57.74
2022-08-08T19:03:06.412Z,57.99
2022-08-08T19:08:24.640Z,57.65
2022-08-08T19:13:53.173Z,57.80
2022-08-08T19:19:02.410Z,57.75
2022-08-08T19:24:08.565Z,58.21
2022-08-08T19:29:22.260Z,58.61
2022-08-08T19:34:36.379Z,58.09
2022-08-08T19:39:45.502Z,58.52
2022-08-08T19:44:50.444Z,59.22
2022-08-08T19:49:59.789Z,59.00
2022-08-08T19:55:09.596Z,58.78
2022-08-08T20:00:29.345Z,58.78
2022-08-08T20:06:14.475Z,58.75
2022-08-08T20:11:03.070Z,58.95
2022-08-08T20:16:06.760Z,59.02
2022-08-08T20:21:10.807Z,59.41
2022-08-08T20:26:15.375Z,59.17
2022-08-08T20:31:19.023Z,59.82
2022-08-08T20:36:22.533Z,59.69
2022-08-08T20:41:27.834Z,59.85
2022-08-08T20:46:31.740Z,60.33
2022-08-08T20:51:36.594Z,60.29
2022-08-08T20:57:04.651Z,60.26
2022-08-08T21:02:09.092Z,66.21
2022-08-08T21:07:17.920Z,63.11
2022-08-08T21:12:45.908Z,55.19
2022-08-08T21:17:56.022Z,56.76
2022-08-08T21:22:59.647Z,58.48
2022-08-08T21:28:09.567Z,58.91
2022-08-08T21:33:21.210Z,60.22
2022-08-08T21:38:25.346Z,66.82
2022-08-08T21:43:32.869Z,62.64
2022-08-08T21:48:44.373Z,56.18
2022-08-08T21:54:33.709Z,57.18
2022-08-08T21:59:16.282Z,58.73
2022-08-08T22:04:24.563Z,59.85
2022-08-08T22:09:37.378Z,60.87
2022-08-08T22:14:50.251Z,61.66
2022-08-08T22:20:12.595Z,68.32
2022-08-08T22:25:25.309Z,61.04
2022-08-08T22:30:30.594Z,56.14
2022-08-08T22:36:05.695Z,58.47
2022-08-08T22:40:57.320Z,59.73
2022-08-08T22:46:00.992Z,60.92
2022-08-08T22:51:06.803Z,66.81
2022-08-08T22:56:10.687Z,61.90
2022-08-08T23:01:26.739Z,56.56
2022-08-08T23:06:37.892Z,58.52
2022-08-08T23:12:28.252Z,59.98
2022-08-08T23:17:05.315Z,60.56
2022-08-08T23:22:09.299Z,61.10
2022-08-08T23:27:17.228Z,67.44
2022-08-08T23:32:44.222Z,62.87
2022-08-08T23:38:03.145Z,56.95
2022-08-08T23:43:07.200Z,59.51
2022-08-08T23:49:02.871Z,61.89
2022-08-08T23:54:04.974Z,67.16
2022-08-08T23:58:58.060Z,61.69
